METAR
METAR

METAR

METAR EPSY 240000Z 26010KT 9999 OVC009 01/M00 Q1022=
TAF EPSY 232330Z 2400/2409 26010KT 9999 BKN008 OVC015 PROB40 TEMPO 2400/2409 4000 BR BKN005=
Ostrzeżenia
Ostrzeżenia

Ostrzeżenia

BRAK